Time;durP1;ratioP1;P1;durP2;ratioP2;P2;SDS_P1;SDS_P2;PMS_P1;PMS_P2;Temp;Humidity;BMP_temperature;BMP_pressure;BME280_temperature;BME280_humidity;BME280_pressure;Samples;Min_cycle;Max_cycle;Signal;HPM_P1;HPM_P2
2022/04/28 00:01:55;;;;;;;10.43;5.50;;;5.90;99.90;;;;;;5076889;28;20055;-73
2022/04/28 00:04:21;;;;;;;10.27;5.43;;;6.30;99.90;;;;;;5076366;28;20044;-74
2022/04/28 00:06:47;;;;;;;7.45;4.60;;;6.10;99.90;;;;;;5093966;28;20043;-73
2022/04/28 00:09:13;;;;;;;7.75;5.15;;;6.10;99.90;;;;;;5093850;28;20128;-73
2022/04/28 00:11:38;;;;;;;10.38;4.85;;;5.90;99.90;;;;;;5093896;28;20174;-73
2022/04/28 00:14:07;;;;;;;7.60;4.78;;;6.20;99.90;;;;;;5093789;28;20047;-73
2022/04/28 00:16:34;;;;;;;6.75;4.50;;;6.80;99.90;;;;;;5093904;28;20052;-73
2022/04/28 00:19:01;;;;;;;10.57;5.20;;;6.20;99.90;;;;;;5093739;28;20036;-74
2022/04/28 00:21:27;;;;;;;8.48;4.45;;;6.40;99.90;;;;;;5093755;28;20059;-74
2022/04/28 00:23:52;;;;;;;7.45;5.00;;;6.30;99.90;;;;;;5076713;28;20044;-74
2022/04/28 00:26:18;;;;;;;7.88;4.40;;;6.70;99.90;;;;;;5058753;28;20048;-74
2022/04/28 00:28:44;;;;;;;10.57;4.90;;;6.20;99.90;;;;;;5093641;28;20059;-73
2022/04/28 00:31:10;;;;;;;10.45;4.93;;;6.40;99.90;;;;;;5093617;28;20044;-73
2022/04/28 00:33:35;;;;;;;7.75;5.05;;;6.50;99.90;;;;;;5076027;28;20040;-73
2022/04/28 00:36:01;;;;;;;9.90;4.53;;;6.60;99.90;;;;;;5093471;28;20131;-73
2022/04/28 00:38:27;;;;;;;7.68;4.63;;;6.60;99.90;;;;;;5076289;28;20044;-73
2022/04/28 00:40:52;;;;;;;7.53;5.15;;;6.60;99.90;;;;;;5094126;28;20470;-73
2022/04/28 00:43:28;;;;;;;7.18;4.75;;;6.70;99.90;;;;;;5093854;28;20052;-72
2022/04/28 00:45:54;;;;;;;6.75;4.28;;;6.90;99.90;;;;;;5076339;28;20408;-73
2022/04/28 00:51:07;;;;;;;7.70;4.60;;;6.90;99.90;;;;;;5093470;28;20052;-74
2022/04/28 00:53:43;;;;;;;9.23;4.68;;;6.70;99.90;;;;;;5075486;28;20040;-74
2022/04/28 00:56:09;;;;;;;9.30;4.43;;;6.90;99.90;;;;;;5076415;28;20425;-73
2022/04/28 00:58:36;;;;;;;7.22;4.18;;;6.80;99.90;;;;;;5094087;28;20342;-73
2022/04/28 01:01:03;;;;;;;9.95;4.72;;;6.80;99.90;;;;;;5093354;28;20047;-73
2022/04/28 01:03:30;;;;;;;7.25;4.65;;;6.80;99.90;;;;;;5093366;28;20062;-73
2022/04/28 01:05:57;;;;;;;8.77;4.35;;;6.90;99.90;;;;;;5078942;28;20209;-74
2022/04/28 01:08:23;;;;;;;6.70;4.82;;;7.50;99.90;;;;;;5079637;28;20048;-74
2022/04/28 01:10:51;;;;;;;8.60;4.90;;;6.90;99.90;;;;;;5097218;28;20048;-73
2022/04/28 01:13:17;;;;;;;10.10;4.90;;;6.90;99.90;;;;;;5097145;28;20070;-74
2022/04/28 01:15:48;;;;;;;8.45;4.50;;;6.90;99.90;;;;;;5096858;28;20533;-74
2022/04/28 01:18:14;;;;;;;5.80;4.55;;;7.00;99.90;;;;;;5097373;28;20055;-73
2022/04/28 01:20:40;;;;;;;8.60;4.25;;;7.00;99.90;;;;;;5097030;28;20051;-73
2022/04/28 01:23:07;;;;;;;6.88;3.90;;;7.00;99.90;;;;;;5096987;28;20044;-73
2022/04/28 01:25:33;;;;;;;6.32;4.22;;;7.00;99.90;;;;;;5097584;28;20078;-73
2022/04/28 01:27:59;;;;;;;8.73;4.05;;;7.10;99.90;;;;;;5097436;28;20480;-74
2022/04/28 01:30:25;;;;;;;5.47;3.92;;;7.00;99.90;;;;;;5096859;28;20052;-74
2022/04/28 01:32:51;;;;;;;6.05;3.72;;;7.00;99.90;;;;;;5096866;28;20048;-74
2022/04/28 01:35:17;;;;;;;8.30;4.28;;;7.00;99.90;;;;;;5075075;28;20053;-74
2022/04/28 01:37:43;;;;;;;7.20;4.05;;;7.10;99.90;;;;;;5076495;28;20056;-74
2022/04/28 01:40:11;;;;;;;7.95;3.88;;;7.10;99.90;;;;;;5074973;28;20086;-74
2022/04/28 01:42:50;;;;;;;8.48;4.00;;;7.10;99.90;;;;;;5075407;28;20048;-74
2022/04/28 01:45:16;;;;;;;6.68;3.78;;;7.10;99.90;;;;;;5076135;28;20479;-74
2022/04/28 01:47:43;;;;;;;5.20;3.55;;;7.10;99.90;;;;;;5076423;28;20040;-73
2022/04/28 01:50:12;;;;;;;6.78;3.20;;;7.10;99.90;;;;;;5075074;28;20056;-73
2022/04/28 01:55:23;;;;;;;6.85;3.35;;;7.70;99.90;;;;;;5076258;28;20063;-74
2022/04/28 01:57:49;;;;;;;10.45;4.30;;;7.50;99.90;;;;;;5074822;28;20090;-74
2022/04/28 02:00:16;;;;;;;6.97;4.20;;;7.20;99.90;;;;;;5075099;28;20052;-74
2022/04/28 02:02:42;;;;;;;7.18;3.85;;;7.20;99.90;;;;;;5076556;28;20041;-73
2022/04/28 02:05:09;;;;;;;5.60;4.40;;;7.30;99.90;;;;;;5075326;28;20085;-73
2022/04/28 02:07:36;;;;;;;7.35;4.22;;;7.20;99.90;;;;;;5075731;28;20082;-73
2022/04/28 02:10:03;;;;;;;6.25;3.97;;;7.60;99.90;;;;;;5075767;28;20048;-74
2022/04/28 02:12:29;;;;;;;6.55;3.80;;;7.20;99.90;;;;;;5074700;28;20059;-74
2022/04/28 02:14:55;;;;;;;10.27;4.30;;;7.30;99.90;;;;;;5075785;28;20044;-75
2022/04/28 02:17:26;;;;;;;7.03;3.38;;;7.30;99.90;;;;;;5074475;28;20469;-73
2022/04/28 02:19:52;;;;;;;5.75;3.90;;;7.50;99.90;;;;;;5075776;28;20086;-73
2022/04/28 02:22:18;;;;;;;9.95;4.25;;;7.40;99.90;;;;;;5076222;28;20090;-74
2022/04/28 02:24:44;;;;;;;8.63;4.47;;;7.20;99.90;;;;;;5075605;28;20048;-73
2022/04/28 02:27:10;;;;;;;8.63;4.43;;;7.30;99.90;;;;;;5074384;28;20098;-73
2022/04/28 02:29:37;;;;;;;6.88;3.85;;;7.40;99.90;;;;;;5075793;28;20044;-73
2022/04/28 02:32:03;;;;;;;5.82;4.00;;;7.60;99.90;;;;;;5075475;28;20040;-74
2022/04/28 02:34:29;;;;;;;9.48;4.03;;;7.40;99.90;;;;;;5075520;28;20097;-73
2022/04/28 02:36:56;;;;;;;6.72;3.70;;;7.40;99.90;;;;;;5096383;28;20168;-74
2022/04/28 02:39:22;;;;;;;7.60;4.05;;;7.40;99.90;;;;;;5095416;28;20048;-73
2022/04/28 02:41:48;;;;;;;6.88;4.03;;;7.50;99.90;;;;;;5096347;28;20360;-73
2022/04/28 02:44:14;;;;;;;9.45;3.72;;;7.40;99.90;;;;;;5095423;28;20047;-74
2022/04/28 02:46:45;;;;;;;9.40;4.00;;;7.40;99.90;;;;;;5095654;28;20048;-74
2022/04/28 02:49:12;;;;;;;6.50;4.15;;;7.80;99.90;;;;;;5095494;28;20040;-74
2022/04/28 02:51:38;;;;;;;8.38;4.60;;;7.40;99.90;;;;;;5078025;28;20044;-73
2022/04/28 02:54:05;;;;;;;8.15;3.50;;;7.40;99.90;;;;;;5095230;28;20048;-74
2022/04/28 02:56:31;;;;;;;6.53;3.80;;;7.40;99.90;;;;;;5060837;28;20059;-74
2022/04/28 02:58:57;;;;;;;7.93;4.57;;;7.50;99.90;;;;;;5095084;28;20043;-74
2022/04/28 03:01:23;;;;;;;8.27;4.03;;;7.90;99.90;;;;;;5077022;28;20044;-74
2022/04/28 03:03:49;;;;;;;7.68;4.00;;;7.50;99.90;;;;;;5095607;28;20103;-73
2022/04/28 03:11:45;;;;;;;6.97;3.88;;;7.50;99.90;;;;;;5095464;28;20134;-73
2022/04/28 03:14:12;;;;;;;8.48;4.10;;;7.10;99.90;;;;;;5094835;28;20083;-74
2022/04/28 03:16:38;;;;;;;7.97;3.92;;;7.50;99.90;;;;;;5076768;28;20044;-72
2022/04/28 03:19:04;;;;;;;6.57;3.92;;;7.90;99.90;;;;;;5076679;28;20130;-73
2022/04/28 03:21:30;;;;;;;6.65;3.95;;;7.40;99.90;;;;;;5094709;28;20141;-73
2022/04/28 03:23:57;;;;;;;6.65;3.72;;;7.40;99.90;;;;;;5094679;28;20048;-73
2022/04/28 03:26:23;;;;;;;7.93;4.10;;;7.90;99.90;;;;;;5094602;28;20094;-74
2022/04/28 03:28:48;;;;;;;8.38;4.00;;;7.30;99.90;;;;;;5094786;28;20403;-73
2022/04/28 03:31:14;;;;;;;9.65;4.57;;;7.40;99.90;;;;;;5094551;28;20059;-74
2022/04/28 03:33:40;;;;;;;8.07;4.30;;;7.30;99.90;;;;;;5095112;28;20432;-74
2022/04/28 03:38:50;;;;;;;8.57;4.10;;;7.50;99.90;;;;;;5094292;28;20108;-74
2022/04/28 03:41:16;;;;;;;9.20;3.55;;;7.30;99.90;;;;;;5094767;28;20134;-74
2022/04/28 03:43:42;;;;;;;7.40;4.20;;;7.30;99.90;;;;;;5076298;28;20044;-74
2022/04/28 03:46:08;;;;;;;6.90;3.78;;;7.40;99.90;;;;;;5094574;28;20055;-73
2022/04/28 03:48:34;;;;;;;7.60;4.20;;;7.30;99.90;;;;;;5094302;28;20396;-73
2022/04/28 03:50:59;;;;;;;6.25;4.25;;;7.80;99.90;;;;;;5093895;28;20051;-74
2022/04/28 03:53:25;;;;;;;6.95;4.15;;;7.30;99.90;;;;;;5076292;28;20063;-73
2022/04/28 03:55:51;;;;;;;8.48;4.38;;;7.30;99.90;;;;;;5059661;28;20039;-73
2022/04/28 03:58:16;;;;;;;7.03;3.67;;;7.80;99.90;;;;;;5076038;28;20117;-74
2022/04/28 04:00:43;;;;;;;8.77;3.90;;;7.30;99.90;;;;;;5094064;28;20396;-73
2022/04/28 04:03:08;;;;;;;5.57;3.80;;;7.30;99.90;;;;;;5076104;28;20484;-74
2022/04/28 04:05:34;;;;;;;9.25;4.70;;;7.20;99.90;;;;;;5094309;28;20055;-73
2022/04/28 04:08:00;;;;;;;8.25;3.90;;;7.20;99.90;;;;;;5094474;28;20374;-74
2022/04/28 04:10:25;;;;;;;6.03;4.13;;;7.00;99.90;;;;;;5093783;28;20040;-74
2022/04/28 04:12:51;;;;;;;6.75;3.53;;;7.20;99.90;;;;;;5093848;28;20127;-74
2022/04/28 04:15:17;;;;;;;9.10;4.47;;;7.20;99.90;;;;;;5076066;28;20040;-74
2022/04/28 04:17:45;;;;;;;8.10;4.72;;;7.20;99.90;;;;;;5094008;28;20040;-73
2022/04/28 04:20:12;;;;;;;7.43;4.15;;;7.20;99.90;;;;;;5093767;28;20092;-73
2022/04/28 04:22:38;;;;;;;8.30;4.22;;;7.20;99.90;;;;;;5093786;28;20047;-73
2022/04/28 04:25:04;;;;;;;8.30;4.10;;;7.70;99.90;;;;;;5094033;28;20040;-73
2022/04/28 04:27:31;;;;;;;8.50;4.32;;;7.30;99.90;;;;;;5093685;28;20044;-74
2022/04/28 04:29:56;;;;;;;7.60;4.00;;;7.30;99.90;;;;;;5093705;28;20118;-73
2022/04/28 04:32:25;;;;;;;8.85;4.28;;;7.50;99.90;;;;;;5093627;28;20185;-73
2022/04/28 04:34:52;;;;;;;8.00;3.70;;;7.30;99.90;;;;;;5075775;28;20052;-74
2022/04/28 04:37:18;;;;;;;9.50;4.03;;;7.40;99.90;;;;;;5093803;28;20487;-73
2022/04/28 04:39:44;;;;;;;8.30;4.07;;;7.60;99.90;;;;;;5078004;28;20048;-73
2022/04/28 04:42:10;;;;;;;5.63;3.58;;;7.50;99.90;;;;;;5097814;28;20055;-73
2022/04/28 04:44:36;;;;;;;7.95;3.60;;;7.50;99.90;;;;;;5097787;28;20048;-73
2022/04/28 04:47:03;;;;;;;8.02;3.75;;;7.50;99.90;;;;;;5097690;28;20091;-74
2022/04/28 04:49:29;;;;;;;9.00;3.35;;;7.60;99.90;;;;;;5098459;28;20076;-74
2022/04/28 04:51:55;;;;;;;9.98;4.32;;;7.50;99.90;;;;;;5097612;28;20094;-74
2022/04/28 04:54:21;;;;;;;7.18;3.60;;;7.60;99.90;;;;;;5098186;28;20086;-73
2022/04/28 04:56:47;;;;;;;9.15;3.50;;;8.10;99.90;;;;;;5080455;28;20052;-74
2022/04/28 04:59:12;;;;;;;9.00;3.50;;;7.60;99.90;;;;;;5062659;28;20043;-74
2022/04/28 05:01:38;;;;;;;5.63;3.20;;;7.70;99.90;;;;;;5079540;28;20047;-74
2022/04/28 05:04:04;;;;;;;6.93;3.45;;;7.70;99.90;;;;;;5097089;28;20131;-73
2022/04/28 05:06:30;;;;;;;6.95;3.55;;;7.70;99.90;;;;;;5097126;28;20052;-74
2022/04/28 05:08:56;;;;;;;4.85;3.17;;;7.70;99.90;;;;;;5079894;28;20044;-74
2022/04/28 05:11:22;;;;;;;9.13;3.20;;;8.00;99.90;;;;;;5063536;28;20488;-74
2022/04/28 05:13:48;;;;;;;8.32;3.10;;;7.80;99.90;;;;;;5079396;28;20079;-73
2022/04/28 05:16:14;;;;;;;5.43;3.08;;;7.90;99.90;;;;;;5079131;28;20459;-74
2022/04/28 05:18:40;;;;;;;7.63;3.15;;;8.40;99.90;;;;;;5078980;28;20119;-73
2022/04/28 05:21:06;;;;;;;10.63;3.50;;;8.00;99.90;;;;;;5079528;28;20123;-73
2022/04/28 05:23:31;;;;;;;6.43;3.05;;;7.90;99.90;;;;;;5078916;28;20080;-74
2022/04/28 05:25:57;;;;;;;7.43;2.97;;;7.80;99.90;;;;;;5078877;28;20044;-74
2022/04/28 05:28:27;;;;;;;7.03;3.33;;;8.00;99.90;;;;;;5078966;28;20087;-74
2022/04/28 05:30:55;;;;;;;6.18;2.60;;;8.00;99.90;;;;;;5097182;28;20411;-74
2022/04/28 05:33:22;;;;;;;6.13;3.15;;;8.00;99.90;;;;;;5096803;28;20056;-74
2022/04/28 05:35:48;;;;;;;9.38;3.03;;;8.10;99.90;;;;;;5096911;28;20056;-74
2022/04/28 05:38:14;;;;;;;5.95;3.00;;;8.20;99.90;;;;;;5097269;28;20047;-74
2022/04/28 05:40:43;;;;;;;7.80;3.53;;;8.30;99.90;;;;;;5078719;28;20383;-74
2022/04/28 05:45:55;;;;;;;10.18;2.95;;;8.00;99.90;;;;;;5097170;28;20441;-74
2022/04/28 05:48:21;;;;;;;11.80;3.28;;;8.20;99.90;;;;;;5096603;28;20119;-74
2022/04/28 05:50:47;;;;;;;6.25;2.78;;;8.10;99.90;;;;;;5078318;28;20135;-75
2022/04/28 05:53:13;;;;;;;6.75;2.60;;;8.10;99.90;;;;;;5097266;28;20120;-74
2022/04/28 05:55:40;;;;;;;4.78;1.80;;;8.40;99.90;;;;;;5078992;28;20051;-73
2022/04/28 05:58:06;;;;;;;7.90;1.80;;;8.30;99.90;;;;;;5096258;28;20040;-73
2022/04/28 06:00:33;;;;;;;7.55;2.20;;;8.20;99.90;;;;;;5096328;28;20035;-73
2022/04/28 06:03:00;;;;;;;8.32;2.17;;;8.20;99.90;;;;;;5096258;28;20079;-74
2022/04/28 06:05:26;;;;;;;5.53;2.05;;;8.20;99.90;;;;;;5096198;28;20043;-73
2022/04/28 06:07:52;;;;;;;8.85;2.00;;;8.20;99.90;;;;;;5096219;28;20442;-73
2022/04/28 06:10:18;;;;;;;5.30;1.80;;;8.10;99.90;;;;;;5079034;28;20131;-73
2022/04/28 06:12:44;;;;;;;8.65;1.90;;;8.60;99.90;;;;;;5096072;28;20052;-73
2022/04/28 06:15:11;;;;;;;6.60;2.10;;;8.60;99.90;;;;;;5096082;28;20054;-74
2022/04/28 06:17:36;;;;;;;8.23;1.95;;;8.70;99.90;;;;;;5078374;28;20055;-73
2022/04/28 06:20:04;;;;;;;7.05;2.30;;;8.20;99.90;;;;;;5095872;28;20036;-73
2022/04/28 06:22:29;;;;;;;4.80;1.50;;;8.30;99.90;;;;;;5095871;28;20032;-74
2022/04/28 06:24:56;;;;;;;5.07;1.73;;;8.30;99.90;;;;;;5078298;28;20375;-74
2022/04/28 06:27:22;;;;;;;4.72;1.20;;;8.30;99.90;;;;;;5095800;28;20109;-74
2022/04/28 06:29:49;;;;;;;6.97;1.48;;;8.30;99.90;;;;;;5095377;28;20594;-74
2022/04/28 06:32:18;;;;;;;4.72;1.67;;;8.30;99.90;;;;;;5095632;28;20056;-73
2022/04/28 06:34:44;;;;;;;6.15;1.52;;;8.30;99.90;;;;;;5095802;28;20048;-72
2022/04/28 06:37:10;;;;;;;4.57;1.02;;;8.30;99.90;;;;;;5095474;28;20190;-74
2022/04/28 06:39:36;;;;;;;7.00;1.27;;;8.40;99.90;;;;;;5095444;28;20168;-74
2022/04/28 06:42:03;;;;;;;6.00;1.40;;;8.50;99.90;;;;;;5079482;28;20044;-74
2022/04/28 06:44:29;;;;;;;3.05;0.90;;;8.60;99.90;;;;;;5078700;28;20127;-73
2022/04/28 06:46:54;;;;;;;2.63;1.00;;;8.90;99.90;;;;;;5078317;28;20197;-74
2022/04/28 06:49:20;;;;;;;3.85;0.98;;;8.80;99.90;;;;;;5077784;28;20516;-73
2022/04/28 06:51:46;;;;;;;5.65;1.25;;;8.70;99.90;;;;;;5061566;28;20056;-73
2022/04/28 06:54:12;;;;;;;5.10;1.05;;;8.70;99.90;;;;;;5095249;28;20215;-73
2022/04/28 06:56:38;;;;;;;4.07;1.20;;;9.00;99.90;;;;;;5095214;28;20087;-72
2022/04/28 06:59:04;;;;;;;7.35;1.10;;;8.80;99.90;;;;;;5077160;28;20453;-75
2022/04/28 07:01:31;;;;;;;2.75;0.90;;;9.40;99.90;;;;;;5095284;28;20059;-74
2022/04/28 07:03:57;;;;;;;5.55;0.90;;;9.20;99.90;;;;;;5094698;28;20048;-74
2022/04/28 07:06:23;;;;;;;3.22;0.70;;;9.10;99.90;;;;;;5095871;28;20040;-74
2022/04/28 07:08:49;;;;;;;5.70;0.98;;;9.00;99.90;;;;;;5094900;28;20039;-73
2022/04/28 07:11:15;;;;;;;3.70;0.73;;;9.10;99.90;;;;;;5095507;28;20040;-74
2022/04/28 07:13:41;;;;;;;1.38;0.52;;;9.10;99.90;;;;;;5077178;28;20040;-75
2022/04/28 07:16:07;;;;;;;4.00;0.70;;;9.20;99.90;;;;;;5077140;28;20117;-75
2022/04/28 07:18:33;;;;;;;4.07;0.80;;;9.20;99.90;;;;;;5076848;28;20047;-74
2022/04/28 07:21:03;;;;;;;2.35;0.70;;;9.30;99.90;;;;;;5094841;28;20047;-74
2022/04/28 07:23:30;;;;;;;4.30;0.98;;;9.30;99.90;;;;;;5094838;28;20043;-73
2022/04/28 07:25:55;;;;;;;6.57;1.05;;;9.30;99.90;;;;;;5095632;28;20124;-72
2022/04/28 07:28:21;;;;;;;5.65;1.10;;;9.40;99.90;;;;;;5094795;28;20481;-73
2022/04/28 07:30:47;;;;;;;1.98;0.88;;;9.50;99.90;;;;;;5077416;28;20135;-72
2022/04/28 07:33:12;;;;;;;4.35;0.80;;;9.60;99.90;;;;;;5076479;28;20047;-72
2022/04/28 07:35:38;;;;;;;4.13;1.00;;;9.80;99.90;;;;;;5077175;28;20109;-72
2022/04/28 07:38:06;;;;;;;6.72;1.23;;;9.80;99.90;;;;;;5094440;28;20088;-72
2022/04/28 07:40:32;;;;;;;4.35;1.00;;;9.80;99.90;;;;;;5059762;28;20125;-73
2022/04/28 07:42:58;;;;;;;5.45;1.10;;;9.80;99.90;;;;;;5094499;28;20055;-72
2022/04/28 07:45:23;;;;;;;3.72;1.00;;;9.70;99.90;;;;;;5094453;28;20040;-70
2022/04/28 07:47:50;;;;;;;4.88;1.10;;;9.80;99.90;;;;;;5076513;28;20083;-71
2022/04/28 07:50:16;;;;;;;4.95;1.33;;;9.60;99.90;;;;;;5094403;28;20048;-74
2022/04/28 07:52:44;;;;;;;3.85;1.05;;;9.70;99.90;;;;;;5075635;28;20044;-73
2022/04/28 07:55:10;;;;;;;4.60;1.20;;;9.60;99.90;;;;;;5093257;28;20131;-73
2022/04/28 07:57:37;;;;;;;5.85;1.45;;;9.60;99.90;;;;;;5093404;28;20043;-73
2022/04/28 08:00:07;;;;;;;5.15;1.35;;;9.60;99.90;;;;;;5093308;28;20077;-73
2022/04/28 08:02:36;;;;;;;5.07;1.20;;;9.60;99.90;;;;;;5075523;28;20052;-73
2022/04/28 08:05:04;;;;;;;2.45;1.30;;;9.60;99.90;;;;;;5093905;28;20049;-72
2022/04/28 08:07:31;;;;;;;9.82;1.95;;;9.60;99.90;;;;;;5058958;28;20078;-71
2022/04/28 08:09:57;;;;;;;4.68;1.20;;;9.40;99.90;;;;;;5093204;28;20048;-72
2022/04/28 08:12:23;;;;;;;4.18;1.40;;;9.70;99.90;;;;;;5093520;28;20127;-72
2022/04/28 08:14:49;;;;;;;6.50;1.45;;;9.80;99.90;;;;;;5093882;28;20426;-71
2022/04/28 08:17:14;;;;;;;5.85;1.15;;;9.70;99.90;;;;;;5092934;28;20047;-71
2022/04/28 08:19:40;;;;;;;6.68;1.27;;;9.80;99.90;;;;;;5093097;28;20165;-73
2022/04/28 08:22:06;;;;;;;4.72;1.40;;;9.90;99.90;;;;;;5092709;28;20079;-72
2022/04/28 08:24:32;;;;;;;5.18;1.30;;;10.00;99.90;;;;;;5093850;28;20040;-72
2022/04/28 08:26:58;;;;;;;4.88;1.10;;;10.10;99.90;;;;;;5075196;28;20138;-72
2022/04/28 08:29:24;;;;;;;8.25;1.67;;;10.10;99.90;;;;;;5093058;28;20120;-72
2022/04/28 08:31:50;;;;;;;5.45;1.20;;;10.10;99.90;;;;;;5075433;28;20073;-71
2022/04/28 08:34:17;;;;;;;4.25;1.20;;;10.20;99.90;;;;;;5075730;28;20036;-72
2022/04/28 08:36:47;;;;;;;4.90;1.48;;;10.20;99.90;;;;;;5093417;28;20060;-72
2022/04/28 08:39:13;;;;;;;4.90;1.13;;;10.20;99.90;;;;;;5075076;28;20105;-72
2022/04/28 08:41:47;;;;;;;6.15;1.20;;;10.30;99.90;;;;;;5092950;28;20044;-71
2022/04/28 08:44:24;;;;;;;3.83;1.20;;;10.20;99.90;;;;;;5093545;28;20466;-71
2022/04/28 08:46:52;;;;;;;5.43;1.20;;;10.20;99.90;;;;;;5075484;28;20048;-72
2022/04/28 08:49:29;;;;;;;3.55;1.45;;;10.30;99.90;;;;;;5093144;28;20164;-72
2022/04/28 08:51:56;;;;;;;4.22;1.38;;;10.40;99.90;;;;;;5092841;28;20113;-73
2022/04/28 08:54:24;;;;;;;7.05;1.30;;;10.60;99.90;;;;;;5093133;28;20131;-73
2022/04/28 08:56:52;;;;;;;3.63;1.20;;;10.60;99.90;;;;;;5093078;28;20044;-73
2022/04/28 08:59:21;;;;;;;3.38;1.08;;;10.60;99.90;;;;;;5092967;28;20557;-73
2022/04/28 09:01:47;;;;;;;6.18;1.48;;;10.70;99.90;;;;;;5075276;28;20048;-73
2022/04/28 09:04:13;;;;;;;5.00;1.23;;;10.90;99.90;;;;;;5075569;28;20044;-71
2022/04/28 09:06:41;;;;;;;4.95;1.30;;;10.90;99.90;;;;;;5074248;28;20040;-71
2022/04/28 09:09:12;;;;;;;3.42;1.20;;;11.10;99.90;;;;;;5092750;28;20406;-72
2022/04/28 09:11:41;;;;;;;6.05;1.65;;;11.30;99.90;;;;;;5093689;28;20079;-73
2022/04/28 09:14:09;;;;;;;5.43;1.42;;;11.40;99.90;;;;;;5092826;28;20479;-72
2022/04/28 09:16:45;;;;;;;5.70;0.98;;;11.30;99.90;;;;;;5075102;28;20052;-72
2022/04/28 09:19:13;;;;;;;4.32;1.30;;;11.30;99.90;;;;;;5093126;28;20064;-73
2022/04/28 09:21:40;;;;;;;4.53;1.40;;;11.20;99.90;;;;;;5074893;28;20051;-72
2022/04/28 09:24:06;;;;;;;3.85;1.13;;;11.20;99.90;;;;;;5092600;28;20048;-71
2022/04/28 09:26:33;;;;;;;5.53;1.50;;;11.10;99.90;;;;;;5077502;28;20566;-72
2022/04/28 09:29:03;;;;;;;5.82;1.50;;;11.10;99.90;;;;;;5061920;28;20048;-72
2022/04/28 09:31:34;;;;;;;7.07;1.50;;;11.10;99.90;;;;;;5061395;28;20048;-71
2022/04/28 09:34:14;;;;;;;4.85;1.63;;;11.10;99.90;;;;;;5097567;28;20071;-72
2022/04/28 09:36:41;;;;;;;8.70;2.20;;;11.10;99.90;;;;;;5074787;28;20109;-73
2022/04/28 09:39:13;;;;;;;4.18;1.70;;;11.10;99.90;;;;;;5057932;28;20127;-71
2022/04/28 09:44:24;;;;;;;6.65;1.95;;;11.10;99.90;;;;;;5075589;28;20059;-73
2022/04/28 09:46:50;;;;;;;4.90;2.20;;;11.10;99.90;;;;;;5075851;28;20087;-73
2022/04/28 09:49:21;;;;;;;8.90;1.85;;;11.10;99.90;;;;;;5075461;28;20046;-73
2022/04/28 09:51:47;;;;;;;9.20;1.73;;;11.10;99.90;;;;;;5076000;28;20119;-73
2022/04/28 09:54:14;;;;;;;4.00;1.90;;;11.10;99.90;;;;;;5075647;28;20095;-73
2022/04/28 09:56:42;;;;;;;7.50;2.03;;;11.20;99.90;;;;;;5074784;28;20052;-75
2022/04/28 09:59:10;;;;;;;8.25;2.30;;;11.20;99.90;;;;;;5076397;28;20044;-73
2022/04/28 10:01:37;;;;;;;7.00;2.28;;;11.30;99.90;;;;;;5075096;28;20093;-73
2022/04/28 10:04:07;;;;;;;6.43;2.70;;;11.30;99.90;;;;;;5075505;28;20048;-71
2022/04/28 10:06:34;;;;;;;8.43;2.05;;;11.30;99.90;;;;;;5075479;28;20102;-72
2022/04/28 10:09:08;;;;;;;7.70;2.15;;;11.30;99.90;;;;;;5057462;28;20473;-71
2022/04/28 10:11:35;;;;;;;3.80;2.00;;;11.30;99.90;;;;;;5076404;28;20052;-72
2022/04/28 10:14:02;;;;;;;8.43;3.30;;;11.30;99.90;;;;;;5074541;28;20036;-72
2022/04/28 10:16:27;;;;;;;8.60;2.97;;;11.30;99.90;;;;;;5058234;28;20075;-73
2022/04/28 10:19:10;;;;;;;8.73;2.58;;;11.40;99.90;;;;;;5073815;28;20040;-72
2022/04/28 10:21:45;;;;;;;8.05;2.60;;;11.90;99.90;;;;;;5075851;28;20083;-72
2022/04/28 10:33:00;;;;;;;8.10;2.60;;;11.40;99.90;;;;;;5074703;28;20045;-72
2022/04/28 10:35:55;;;;;;;9.20;2.10;;;11.40;99.90;;;;;;5083910;28;20384;-74
2022/04/28 10:38:26;;;;;;;8.30;2.33;;;11.50;99.90;;;;;;5076602;28;20352;-72
2022/04/28 10:41:11;;;;;;;6.50;1.88;;;11.40;99.90;;;;;;5095254;28;20379;-72
2022/04/28 10:43:39;;;;;;;6.38;1.80;;;11.40;99.90;;;;;;5077104;28;20040;-74
2022/04/28 10:46:07;;;;;;;3.78;1.75;;;11.40;99.90;;;;;;5077109;28;20131;-73
2022/04/28 10:48:43;;;;;;;5.38;1.60;;;11.40;99.90;;;;;;5094561;28;20553;-74
2022/04/28 10:51:15;;;;;;;6.65;2.20;;;11.50;99.90;;;;;;5095372;28;20071;-73
2022/04/28 10:54:29;;;;;;;9.43;2.15;;;11.50;99.90;;;;;;5095700;28;20375;-72
2022/04/28 10:56:57;;;;;;;5.63;1.52;;;11.50;99.90;;;;;;5078339;28;20487;-73
2022/04/28 10:59:26;;;;;;;6.38;1.60;;;11.60;99.90;;;;;;5095121;28;20107;-73
2022/04/28 11:01:52;;;;;;;3.47;1.38;;;11.50;99.90;;;;;;5076727;28;20048;-73
2022/04/28 11:04:23;;;;;;;7.45;1.40;;;11.70;99.90;;;;;;5094647;28;20051;-73
2022/04/28 11:06:56;;;;;;;5.10;1.40;;;11.80;99.90;;;;;;5077246;28;20380;-73
2022/04/28 11:09:37;;;;;;;8.43;1.60;;;11.90;99.90;;;;;;5075910;28;20056;-73
2022/04/28 11:12:23;;;;;;;5.60;2.05;;;11.90;99.90;;;;;;5094231;28;20066;-72
2022/04/28 11:15:03;;;;;;;8.18;2.08;;;11.90;99.90;;;;;;5043099;28;20068;-73
2022/04/28 11:17:30;;;;;;;5.75;1.88;;;11.90;99.90;;;;;;5076757;28;20043;-73
2022/04/28 11:20:04;;;;;;;5.65;1.88;;;11.90;99.90;;;;;;5094286;28;20044;-73
2022/04/28 11:22:31;;;;;;;8.05;1.73;;;11.90;99.90;;;;;;5094791;28;20506;-70
2022/04/28 11:24:56;;;;;;;7.35;1.98;;;11.90;99.90;;;;;;5076154;28;20039;-72
2022/04/28 11:27:25;;;;;;;5.60;1.40;;;11.90;99.90;;;;;;5076600;28;20460;-72
2022/04/28 11:29:55;;;;;;;8.40;1.45;;;12.00;99.90;;;;;;5094564;28;20127;-74
2022/04/28 11:32:21;;;;;;;6.47;1.58;;;11.90;99.90;;;;;;5095386;28;20438;-73
2022/04/28 11:34:48;;;;;;;4.82;1.50;;;12.00;99.90;;;;;;5094915;28;20098;-71
2022/04/28 11:37:22;;;;;;;6.35;1.60;;;11.90;99.90;;;;;;5077017;28;20056;-72
2022/04/28 11:39:49;;;;;;;6.03;1.65;;;11.90;99.90;;;;;;5094776;28;20139;-72
2022/04/28 11:42:16;;;;;;;10.80;1.77;;;11.90;99.90;;;;;;5094496;28;20090;-72
2022/04/28 11:44:51;;;;;;;5.72;1.63;;;11.90;99.90;;;;;;5094362;28;20501;-72
2022/04/28 11:47:17;;;;;;;5.93;1.80;;;11.90;99.90;;;;;;5076597;28;20044;-72
2022/04/28 11:49:44;;;;;;;2.55;1.40;;;12.00;99.90;;;;;;5094551;28;20050;-72
2022/04/28 11:52:27;;;;;;;6.95;1.45;;;12.00;99.90;;;;;;5094292;28;20063;-72
2022/04/28 11:55:01;;;;;;;4.07;1.67;;;12.10;99.90;;;;;;5076836;28;20040;-72
2022/04/28 11:57:27;;;;;;;6.93;1.60;;;12.10;99.90;;;;;;5077083;28;20044;-71
2022/04/28 11:59:54;;;;;;;2.90;1.30;;;12.10;99.90;;;;;;5094242;28;20453;-73
2022/04/28 12:02:28;;;;;;;5.82;1.83;;;12.10;99.90;;;;;;5094080;28;20097;-72
2022/04/28 12:04:55;;;;;;;5.85;1.75;;;12.10;99.90;;;;;;5094443;28;20392;-72
2022/04/28 12:07:22;;;;;;;5.00;1.77;;;12.00;99.90;;;;;;5093992;28;20036;-72
2022/04/28 12:15:23;;;;;;;6.72;2.05;;;12.10;99.90;;;;;;5076190;28;20136;-75
2022/04/28 12:21:01;;;;;;;5.18;1.83;;;12.10;99.90;;;;;;5093827;28;20062;-72
2022/04/28 12:23:39;;;;;;;5.55;1.33;;;12.10;99.90;;;;;;5076067;28;20054;-70
2022/04/28 12:26:07;;;;;;;5.82;1.27;;;12.10;99.90;;;;;;5093933;28;20052;-72
2022/04/28 12:28:35;;;;;;;4.38;1.40;;;12.10;99.90;;;;;;5076054;28;20443;-71
2022/04/28 12:31:02;;;;;;;9.05;2.75;;;12.10;99.90;;;;;;5093653;28;20040;-71
2022/04/28 12:33:29;;;;;;;4.53;1.23;;;12.10;99.90;;;;;;5075889;28;20090;-74
2022/04/28 12:35:59;;;;;;;4.65;1.70;;;12.20;99.90;;;;;;5093979;28;20056;-72
2022/04/28 12:38:27;;;;;;;4.45;1.40;;;12.20;99.90;;;;;;5094197;28;20150;-72
2022/04/28 12:40:53;;;;;;;6.47;1.58;;;12.20;99.90;;;;;;5094350;28;20418;-72
2022/04/28 12:43:37;;;;;;;6.07;1.58;;;12.20;99.90;;;;;;5093645;28;20083;-72
2022/04/28 12:46:05;;;;;;;5.07;1.40;;;12.20;99.90;;;;;;5075813;28;20040;-72
2022/04/28 12:48:35;;;;;;;7.20;1.73;;;12.10;99.90;;;;;;5094462;28;20055;-71
2022/04/28 12:51:14;;;;;;;4.95;1.80;;;12.10;99.90;;;;;;5059345;28;20058;-72
2022/04/28 12:53:43;;;;;;;4.82;1.40;;;12.00;99.90;;;;;;5075511;28;20094;-75
2022/04/28 12:56:12;;;;;;;7.07;1.45;;;11.90;99.90;;;;;;5075546;28;20044;-71
2022/04/28 12:58:48;;;;;;;3.40;2.10;;;11.90;99.90;;;;;;5058855;28;20472;-72
2022/04/28 13:01:18;;;;;;;7.05;1.60;;;12.00;99.90;;;;;;5095936;28;20126;-71
2022/04/28 13:03:59;;;;;;;6.40;1.77;;;12.00;99.90;;;;;;5097559;28;20047;-71
2022/04/28 13:06:30;;;;;;;6.20;1.70;;;12.10;99.90;;;;;;5079525;28;20102;-71
2022/04/28 13:08:57;;;;;;;5.07;1.23;;;12.10;99.90;;;;;;5079239;28;20119;-71
2022/04/28 13:11:29;;;;;;;4.53;1.70;;;12.20;99.90;;;;;;5063687;28;20157;-71
2022/04/28 13:13:56;;;;;;;5.68;1.50;;;12.20;99.90;;;;;;5097407;28;20412;-71
2022/04/28 13:16:22;;;;;;;6.28;1.92;;;12.20;99.90;;;;;;5097014;28;20514;-73
2022/04/28 13:18:48;;;;;;;5.25;1.45;;;12.30;99.90;;;;;;5097768;28;20388;-72
2022/04/28 13:21:15;;;;;;;5.70;1.70;;;12.30;99.90;;;;;;5097209;28;20055;-72
2022/04/28 13:23:42;;;;;;;4.55;1.77;;;12.30;99.90;;;;;;5062679;28;20460;-73
2022/04/28 13:26:09;;;;;;;5.13;1.90;;;12.30;99.90;;;;;;5097493;28;20044;-72
2022/04/28 13:28:36;;;;;;;5.75;1.67;;;12.20;99.90;;;;;;5097649;28;20441;-73
2022/04/28 13:31:02;;;;;;;4.15;1.55;;;12.20;99.90;;;;;;5097016;28;20488;-73
2022/04/28 13:33:27;;;;;;;6.13;1.52;;;12.30;99.90;;;;;;5079997;28;20056;-73